Terminal Aerodrome Forecast
Issued by NWS

Home | Current Version | Previous Version | Graphics & Text | Print | Product List | Glossary On
Versions: 1 2 3 4 5 6 7 8 9 10 11 12 13 14 15 16 17 18 19
000
FTUS43 KGRB 241414 AAA
TAFATW
TAF AMD
KATW 241414Z 2414/2512 22012KT 6SM BR VCSH BKN006 OVC060
      TEMPO 2414/2418 4SM -SHRA BR BKN010 OVC060
     FM241800 22012G18KT P6SM BKN026
     FM242000 23011G16KT P6SM BKN045
     FM242200 26006KT P6SM SCT040 BKN070
     FM250400 26004KT P6SM BKN120=

USA.gov is the U.S. government's official web portal to all federal, state and local government web resources and services.